createdAt,value
2016-11-20T00:00:46.199Z,14.45
2016-11-20T00:01:58.126Z,14.46
2016-11-20T00:03:11.153Z,14.52
2016-11-20T00:04:24.163Z,14.46
2016-11-20T00:05:37.127Z,14.49
2016-11-20T00:06:50.619Z,14.46
2016-11-20T00:08:04.111Z,14.49
2016-11-20T00:09:16.614Z,14.41
2016-11-20T00:10:28.569Z,14.38
2016-11-20T00:11:41.041Z,14.34
2016-11-20T00:12:53.980Z,14.41
2016-11-20T00:14:06.993Z,14.4
2016-11-20T00:15:20.531Z,14.44
2016-11-20T00:16:32.977Z,14.48
2016-11-20T00:17:46.448Z,14.41
2016-11-20T00:19:00.053Z,14.38
2016-11-20T00:20:11.454Z,14.4
2016-11-20T00:21:24.434Z,14.4
2016-11-20T00:22:37.350Z,14.38
2016-11-20T00:23:49.840Z,14.33
2016-11-20T00:25:03.343Z,14.38
2016-11-20T00:26:16.878Z,14.37
2016-11-20T00:27:29.372Z,14.3
2016-11-20T00:28:41.845Z,14.31
2016-11-20T00:29:54.855Z,14.3
2016-11-20T00:31:07.809Z,14.48
2016-11-20T00:32:20.838Z,14.28
2016-11-20T00:33:33.782Z,14.33
2016-11-20T00:34:46.834Z,14.28
2016-11-20T00:36:00.406Z,14.33
2016-11-20T00:37:13.432Z,14.3
2016-11-20T00:38:25.971Z,14.41
2016-11-20T00:39:38.970Z,14.33
2016-11-20T00:40:51.432Z,14.33
2016-11-20T00:42:03.985Z,14.36
2016-11-20T00:43:17.497Z,14.36
2016-11-20T00:44:30.953Z,14.37
2016-11-20T00:45:43.445Z,14.34
2016-11-20T00:46:56.422Z,14.34
2016-11-20T00:48:08.914Z,14.44
2016-11-20T00:49:22.446Z,14.36
2016-11-20T00:50:35.457Z,14.48
2016-11-20T00:51:49.056Z,14.4
2016-11-20T00:53:00.451Z,14.3
2016-11-20T00:54:13.397Z,14.31
2016-11-20T00:55:25.331Z,14.37
2016-11-20T00:56:38.333Z,14.38
2016-11-20T00:57:51.857Z,14.33
2016-11-20T00:59:04.392Z,14.31
2016-11-20T01:00:16.894Z,14.3
2016-11-20T01:01:30.427Z,14.37
2016-11-20T01:02:42.929Z,14.33
2016-11-20T01:03:56.421Z,14.33
2016-11-20T01:05:08.352Z,14.34
2016-11-20T01:06:21.334Z,14.37
2016-11-20T01:07:34.313Z,14.3
2016-11-20T01:08:47.283Z,14.33
2016-11-20T01:10:00.341Z,14.31
2016-11-20T01:11:13.778Z,14.3
2016-11-20T01:12:26.784Z,14.3
2016-11-20T01:13:38.157Z,14.28
2016-11-20T01:14:51.608Z,14.28
2016-11-20T01:16:05.152Z,14.28
2016-11-20T01:17:18.681Z,14.28
2016-11-20T01:18:32.207Z,14.3
2016-11-20T01:19:45.153Z,14.31
2016-11-20T01:20:58.110Z,14.21
2016-11-20T01:22:10.567Z,14.23
2016-11-20T01:23:22.479Z,14.27
2016-11-20T01:24:36.068Z,14.22
2016-11-20T01:25:49.058Z,14.22
2016-11-20T01:27:02.659Z,14.22
2016-11-20T01:28:16.187Z,14.21
2016-11-20T01:29:29.245Z,14.22
2016-11-20T01:30:42.843Z,14.26
2016-11-20T01:31:55.345Z,14.18
2016-11-20T01:33:08.427Z,14.21
2016-11-20T01:34:21.435Z,14.26
2016-11-20T01:35:33.413Z,14.21
2016-11-20T01:36:46.907Z,14.19
2016-11-20T01:37:59.936Z,14.19
2016-11-20T01:39:13.519Z,14.28
2016-11-20T01:40:26.539Z,14.22
2016-11-20T01:41:40.117Z,14.3
2016-11-20T01:43:24.229Z,14.26
2016-11-20T01:44:37.780Z,14.21
2016-11-20T01:45:49.772Z,14.3
2016-11-20T01:47:02.311Z,14.23
2016-11-20T01:48:15.929Z,14.28
2016-11-20T01:49:29.498Z,14.27
2016-11-20T01:50:42.615Z,14.22
2016-11-20T01:51:55.668Z,14.21
2016-11-20T01:53:08.618Z,14.23
2016-11-20T01:54:21.105Z,14.28
2016-11-20T01:55:34.656Z,14.22
2016-11-20T01:56:47.229Z,14.26
2016-11-20T01:58:00.839Z,14.18
2016-11-20T01:59:13.902Z,14.21
2016-11-20T02:00:26.367Z,14.21
2016-11-20T02:02:10.984Z,14.12
2016-11-20T02:03:24.536Z,14.09
2016-11-20T02:04:37.580Z,14.16
2016-11-20T02:05:51.161Z,14.09
2016-11-20T02:07:04.222Z,14.13
2016-11-20T02:08:17.871Z,14.16
2016-11-20T02:09:30.334Z,14.13
2016-11-20T02:10:43.386Z,14.16
2016-11-20T02:11:56.499Z,14.12
2016-11-20T02:13:10.028Z,14.15
2016-11-20T02:14:23.567Z,14.05
2016-11-20T02:15:36.599Z,14.13
2016-11-20T02:16:49.078Z,14.11
2016-11-20T02:18:02.606Z,14.12
2016-11-20T02:19:16.140Z,14.13
2016-11-20T02:20:29.669Z,14.15
2016-11-20T02:21:42.185Z,14.13
2016-11-20T02:22:55.196Z,14.09
2016-11-20T02:24:08.244Z,14.11
2016-11-20T02:25:21.285Z,14.09
2016-11-20T02:26:34.808Z,14.13
2016-11-20T02:27:48.379Z,14.15
2016-11-20T02:29:01.409Z,14.05
2016-11-20T02:30:14.950Z,14.04
2016-11-20T02:31:27.932Z,14.05
2016-11-20T02:32:40.443Z,14.13
2016-11-20T02:33:54.004Z,14.11
2016-11-20T02:35:07.574Z,14.08
2016-11-20T02:36:21.109Z,14.01
2016-11-20T02:37:34.658Z,14.04
2016-11-20T02:39:18.248Z,14.08
2016-11-20T02:40:30.708Z,13.96
2016-11-20T02:41:43.686Z,13.98
2016-11-20T02:42:56.658Z,14.08
2016-11-20T02:44:10.244Z,14.05
2016-11-20T02:45:23.813Z,14
2016-11-20T02:46:36.832Z,14
2016-11-20T02:48:52.580Z,14.01
2016-11-20T02:50:06.112Z,14
2016-11-20T02:51:19.102Z,13.97
2016-11-20T02:52:32.171Z,14
2016-11-20T02:53:45.665Z,14.01
2016-11-20T02:54:58.150Z,14
2016-11-20T02:56:10.136Z,14.01
2016-11-20T02:57:23.170Z,14.05
2016-11-20T02:58:36.209Z,13.97
2016-11-20T02:59:49.757Z,14.01
2016-11-20T03:01:03.257Z,13.97
2016-11-20T03:02:47.467Z,14.11
2016-11-20T03:04:00.517Z,14.11
2016-11-20T03:05:13.485Z,13.96
2016-11-20T03:06:26.532Z,14.04
2016-11-20T03:07:40.155Z,14.08
2016-11-20T03:08:53.693Z,14.05
2016-11-20T03:10:07.250Z,14.11
2016-11-20T03:11:19.759Z,14.12
2016-11-20T03:12:33.269Z,14.08
2016-11-20T03:13:46.811Z,14.16
2016-11-20T03:15:00.345Z,14.19
2016-11-20T03:16:13.363Z,14.22
2016-11-20T03:17:25.912Z,14.23
2016-11-20T03:18:39.527Z,14.21
2016-11-20T03:19:52.044Z,14.22
2016-11-20T03:21:05.056Z,14.26
2016-11-20T03:22:18.099Z,14.3
2016-11-20T03:23:31.111Z,14.27
2016-11-20T03:24:44.658Z,14.21
2016-11-20T03:25:58.257Z,14.26
2016-11-20T03:27:10.740Z,14.3
2016-11-20T03:28:23.238Z,14.27
2016-11-20T03:29:36.309Z,14.3
2016-11-20T03:30:49.344Z,14.26
2016-11-20T03:32:02.403Z,14.27
2016-11-20T03:33:15.423Z,14.21
2016-11-20T03:34:27.857Z,14.12
2016-11-20T03:35:40.922Z,14.13
2016-11-20T03:36:54.005Z,14.11
2016-11-20T03:38:06.491Z,14.13
2016-11-20T03:39:19.973Z,14.12
2016-11-20T03:40:32.454Z,14.05
2016-11-20T03:41:45.473Z,14.08
2016-11-20T03:42:58.535Z,14.13
2016-11-20T03:44:42.651Z,14.16
2016-11-20T03:45:56.170Z,14.12
2016-11-20T03:47:09.699Z,14.18
2016-11-20T03:48:22.731Z,14.13
2016-11-20T03:49:36.277Z,14.12
2016-11-20T03:50:48.755Z,14.21
2016-11-20T03:52:01.690Z,14.16
2016-11-20T03:53:14.737Z,14.09
2016-11-20T03:54:28.312Z,14.09
2016-11-20T03:55:41.355Z,14.18
2016-11-20T03:56:53.936Z,14.09
2016-11-20T03:58:07.482Z,14.09
2016-11-20T03:59:21.064Z,13.98
2016-11-20T04:00:34.614Z,14
2016-11-20T04:01:48.177Z,14.05
2016-11-20T04:03:01.686Z,14.01
2016-11-20T04:04:14.107Z,13.96
2016-11-20T04:05:26.648Z,13.94
2016-11-20T04:06:40.236Z,13.86
2016-11-20T04:07:53.327Z,13.88
2016-11-20T04:09:06.858Z,13.85
2016-11-20T04:10:19.824Z,13.86
2016-11-20T04:12:03.462Z,13.8
2016-11-20T04:13:16.998Z,13.8
2016-11-20T04:14:29.993Z,13.78
2016-11-20T04:16:45.763Z,13.71
2016-11-20T04:17:59.308Z,13.76
2016-11-20T04:19:12.842Z,13.63
2016-11-20T04:20:25.822Z,13.75
2016-11-20T04:22:09.472Z,13.71
2016-11-20T04:23:21.967Z,13.68
2016-11-20T04:24:35.579Z,13.68
2016-11-20T04:25:48.562Z,13.6
2016-11-20T04:27:01.615Z,13.61
2016-11-20T04:28:14.122Z,13.63
2016-11-20T04:29:27.154Z,13.61
2016-11-20T04:30:39.619Z,13.58
2016-11-20T04:31:53.138Z,13.6
2016-11-20T04:33:06.124Z,13.57
2016-11-20T04:34:19.612Z,13.49
2016-11-20T04:35:32.629Z,13.46
2016-11-20T04:36:45.113Z,13.51
2016-11-20T04:37:57.653Z,13.46
2016-11-20T04:39:10.614Z,13.42
2016-11-20T04:40:22.572Z,13.42
2016-11-20T04:41:35.553Z,13.43
2016-11-20T04:42:48.083Z,13.39
2016-11-20T04:44:00.526Z,13.42
2016-11-20T04:45:12.996Z,13.49
2016-11-20T04:46:26.079Z,13.45
2016-11-20T04:47:39.569Z,13.46
2016-11-20T04:49:24.310Z,13.47
2016-11-20T04:50:36.821Z,13.57
2016-11-20T04:51:49.865Z,13.47
2016-11-20T04:53:03.390Z,13.54
2016-11-20T04:54:15.862Z,13.45
2016-11-20T04:55:29.348Z,13.46
2016-11-20T04:56:42.845Z,13.49
2016-11-20T04:57:56.377Z,13.55
2016-11-20T04:59:09.926Z,13.58
2016-11-20T05:00:23.462Z,13.58
2016-11-20T05:01:35.965Z,13.54
2016-11-20T05:02:49.503Z,13.57
2016-11-20T05:04:02.475Z,13.61
2016-11-20T05:05:16.092Z,13.55
2016-11-20T05:06:29.687Z,13.63
2016-11-20T05:07:43.236Z,13.6
2016-11-20T05:08:56.316Z,13.65
2016-11-20T05:10:09.982Z,13.65
2016-11-20T05:11:23.110Z,13.61
2016-11-20T05:12:36.780Z,13.63
2016-11-20T05:13:50.391Z,13.58
2016-11-20T05:15:03.541Z,13.58
2016-11-20T05:16:16.089Z,13.57
2016-11-20T05:17:29.095Z,13.58
2016-11-20T05:18:42.194Z,13.53
2016-11-20T05:19:54.193Z,13.54
2016-11-20T05:21:07.795Z,13.43
2016-11-20T05:22:20.797Z,13.45
2016-11-20T05:23:32.807Z,13.4
2016-11-20T05:24:45.325Z,13.43
2016-11-20T05:25:58.914Z,13.35
2016-11-20T05:27:11.403Z,13.39
2016-11-20T05:28:24.466Z,13.36
2016-11-20T05:29:36.957Z,13.39
2016-11-20T05:30:50.048Z,13.38
2016-11-20T05:32:03.564Z,13.36
2016-11-20T05:33:17.217Z,13.36
2016-11-20T05:34:29.686Z,13.3
2016-11-20T05:35:43.309Z,13.32
2016-11-20T05:36:56.933Z,13.27
2016-11-20T05:38:10.537Z,13.27
2016-11-20T05:39:24.178Z,13.27
2016-11-20T05:40:36.698Z,13.24
2016-11-20T05:41:50.287Z,13.24
2016-11-20T05:43:03.889Z,13.27
2016-11-20T05:44:16.899Z,13.35
2016-11-20T05:45:30.557Z,13.29
2016-11-20T05:46:42.998Z,13.29
2016-11-20T05:47:56.574Z,13.27
2016-11-20T05:49:09.154Z,13.26
2016-11-20T05:50:53.870Z,13.36
2016-11-20T05:52:06.939Z,13.27
2016-11-20T05:53:19.504Z,13.24
2016-11-20T05:54:32.596Z,13.3
2016-11-20T05:55:46.193Z,13.35
2016-11-20T05:56:58.192Z,13.29
2016-11-20T05:58:11.282Z,13.29
2016-11-20T05:59:24.316Z,13.27
2016-11-20T06:00:37.917Z,13.3
2016-11-20T06:01:51.004Z,13.24
2016-11-20T06:03:04.706Z,13.26
2016-11-20T06:04:18.278Z,13.23
2016-11-20T06:05:31.839Z,13.29
2016-11-20T06:06:44.882Z,13.3
2016-11-20T06:07:58.439Z,13.26
2016-11-20T06:09:10.397Z,13.19
2016-11-20T06:10:23.419Z,13.14
2016-11-20T06:11:37.012Z,13.21
2016-11-20T06:12:49.013Z,13.16
2016-11-20T06:14:02.046Z,13.19
2016-11-20T06:15:15.592Z,13.17
2016-11-20T06:16:29.079Z,13.29
2016-11-20T06:17:42.709Z,13.17
2016-11-20T06:18:56.255Z,13.16
2016-11-20T06:20:09.825Z,13.2
2016-11-20T06:21:22.396Z,13.19
2016-11-20T06:22:35.992Z,13.2
2016-11-20T06:23:49.181Z,13.19
2016-11-20T06:25:02.806Z,13.3
2016-11-20T06:26:15.975Z,13.14
2016-11-20T06:27:29.021Z,13.19
2016-11-20T06:28:42.647Z,13.16
2016-11-20T06:29:55.753Z,13.14
2016-11-20T06:31:08.825Z,13.14
2016-11-20T06:32:21.357Z,13.16
2016-11-20T06:33:33.918Z,13.17
2016-11-20T06:34:47.523Z,13.16
2016-11-20T06:36:00.536Z,13.16
2016-11-20T06:37:12.048Z,13.11
2016-11-20T06:38:25.093Z,13.14
2016-11-20T06:39:38.621Z,13.06
2016-11-20T06:40:51.698Z,13.13
2016-11-20T06:42:05.316Z,13.06
2016-11-20T06:43:18.342Z,13.09
2016-11-20T06:44:31.896Z,13.04
2016-11-20T06:45:44.455Z,12.96
2016-11-20T06:46:58.060Z,12.99
2016-11-20T06:48:11.096Z,12.99
2016-11-20T06:49:24.176Z,12.99
2016-11-20T06:50:37.789Z,13.01
2016-11-20T06:51:50.259Z,12.96
2016-11-20T06:53:03.854Z,12.99
2016-11-20T06:54:16.881Z,12.91
2016-11-20T06:55:29.337Z,12.93
2016-11-20T06:56:42.860Z,12.9
2016-11-20T06:59:40.481Z,12.9
2016-11-20T07:00:53.529Z,12.9
2016-11-20T07:02:05.526Z,12.95
2016-11-20T07:03:18.625Z,12.98
2016-11-20T07:04:31.674Z,12.95
2016-11-20T07:05:44.187Z,12.88
2016-11-20T07:06:57.135Z,12.88
2016-11-20T07:08:10.168Z,12.93
2016-11-20T07:09:23.665Z,12.93
2016-11-20T07:10:37.230Z,12.91
2016-11-20T07:11:50.292Z,12.87
2016-11-20T07:13:03.820Z,12.88
2016-11-20T07:14:17.357Z,12.96
2016-11-20T07:15:31.014Z,12.95
2016-11-20T07:16:44.510Z,12.95
2016-11-20T07:17:58.109Z,12.96
2016-11-20T07:19:11.611Z,12.93
2016-11-20T07:20:25.180Z,12.88
2016-11-20T07:21:38.232Z,12.91
2016-11-20T07:22:50.778Z,12.9
2016-11-20T07:24:04.338Z,12.88
2016-11-20T07:25:17.390Z,12.86
2016-11-20T07:28:15.574Z,12.79
2016-11-20T07:29:28.079Z,12.77
2016-11-20T07:30:40.612Z,12.77
2016-11-20T07:31:54.184Z,12.84
2016-11-20T07:33:07.739Z,12.81
2016-11-20T07:34:21.400Z,12.83
2016-11-20T07:35:34.950Z,12.83
2016-11-20T07:36:47.959Z,12.77
2016-11-20T07:38:01.008Z,12.81
2016-11-20T07:39:14.078Z,12.83
2016-11-20T07:40:27.094Z,12.73
2016-11-20T07:41:40.724Z,12.79
2016-11-20T07:42:53.195Z,12.8
2016-11-20T07:44:06.272Z,12.83
2016-11-20T07:45:19.772Z,12.8
2016-11-20T07:46:33.283Z,12.79
2016-11-20T07:47:46.249Z,12.84
2016-11-20T07:48:59.258Z,12.83
2016-11-20T07:50:12.274Z,12.76
2016-11-20T07:51:25.831Z,12.87
2016-11-20T07:52:39.440Z,12.86
2016-11-20T07:53:53.006Z,12.81
2016-11-20T07:55:06.621Z,12.81
2016-11-20T07:56:20.190Z,12.81
2016-11-20T07:57:33.721Z,12.83
2016-11-20T07:58:47.309Z,12.86
2016-11-20T08:00:00.308Z,12.88
2016-11-20T08:01:13.850Z,12.9
2016-11-20T08:02:27.366Z,12.87
2016-11-20T08:03:40.867Z,12.88
2016-11-20T08:04:54.466Z,12.81
2016-11-20T08:06:08.066Z,12.93
2016-11-20T08:07:21.114Z,12.87
2016-11-20T08:08:34.101Z,12.9
2016-11-20T08:09:47.645Z,12.87
2016-11-20T08:11:00.173Z,12.95
2016-11-20T08:12:13.445Z,12.93
2016-11-20T08:13:26.944Z,12.95
2016-11-20T08:14:39.391Z,12.93
2016-11-20T08:15:52.398Z,12.95
2016-11-20T08:17:05.917Z,12.96
2016-11-20T08:18:18.373Z,12.88
2016-11-20T08:19:31.416Z,12.91
2016-11-20T08:20:43.964Z,12.96
2016-11-20T08:21:57.046Z,12.91
2016-11-20T08:23:10.634Z,12.95
2016-11-20T08:24:23.714Z,12.9
2016-11-20T08:25:37.269Z,12.93
2016-11-20T08:26:50.810Z,12.96
2016-11-20T08:28:03.837Z,12.99
2016-11-20T08:29:16.393Z,13.01
2016-11-20T08:30:29.395Z,12.98
2016-11-20T08:31:41.870Z,13.06
2016-11-20T08:32:55.463Z,13.05
2016-11-20T08:34:07.964Z,13.16
2016-11-20T08:35:20.991Z,13.17
2016-11-20T08:36:33.993Z,13.14
2016-11-20T08:37:47.569Z,13.14
2016-11-20T08:39:01.105Z,13.17
2016-11-20T08:40:13.619Z,13.17
2016-11-20T08:41:26.618Z,13.2
2016-11-20T08:42:40.302Z,13.21
2016-11-20T08:43:53.312Z,13.27
2016-11-20T08:45:06.362Z,13.27
2016-11-20T08:46:19.973Z,13.39
2016-11-20T08:47:32.491Z,13.46
2016-11-20T08:48:46.028Z,13.54
2016-11-20T08:49:57.980Z,13.73
2016-11-20T08:51:10.980Z,13.65
2016-11-20T08:52:24.010Z,13.75
2016-11-20T08:53:37.590Z,13.78
2016-11-20T08:54:50.661Z,13.93
2016-11-20T08:56:03.193Z,14
2016-11-20T08:57:16.306Z,14.05
2016-11-20T08:58:29.291Z,14.22
2016-11-20T08:59:42.853Z,14.3
2016-11-20T09:00:56.361Z,14.28
2016-11-20T09:02:09.390Z,14.33
2016-11-20T09:03:22.411Z,14.28
2016-11-20T09:04:34.942Z,14.37
2016-11-20T09:05:47.429Z,14.33
2016-11-20T09:07:00.411Z,14.28
2016-11-20T09:08:14.010Z,14.26
2016-11-20T09:09:27.570Z,14.21
2016-11-20T09:10:41.164Z,14.27
2016-11-20T09:11:54.770Z,14.12
2016-11-20T09:13:07.782Z,14.08
2016-11-20T09:14:20.259Z,14
2016-11-20T09:15:33.333Z,14.03
2016-11-20T09:16:46.822Z,14
2016-11-20T09:17:59.807Z,13.88
2016-11-20T09:19:13.387Z,13.76
2016-11-20T09:20:26.465Z,13.8
2016-11-20T09:21:39.542Z,13.83
2016-11-20T09:22:52.567Z,13.82
2016-11-20T09:24:06.174Z,13.79
2016-11-20T09:25:18.662Z,13.83
2016-11-20T09:26:32.196Z,13.88
2016-11-20T09:27:45.212Z,13.96
2016-11-20T09:28:58.784Z,13.94
2016-11-20T09:30:11.777Z,13.9
2016-11-20T09:31:56.547Z,13.79
2016-11-20T09:33:10.138Z,13.85
2016-11-20T09:34:23.127Z,13.9
2016-11-20T09:35:36.196Z,13.9
2016-11-20T09:36:49.724Z,13.83
2016-11-20T09:38:33.313Z,13.98
2016-11-20T09:39:46.381Z,14.09
2016-11-20T09:40:59.904Z,14.13
2016-11-20T09:42:13.469Z,14.05
2016-11-20T09:43:27.045Z,14.16
2016-11-20T09:44:39.547Z,14.13
2016-11-20T09:45:53.023Z,14.19
2016-11-20T09:47:06.139Z,14.27
2016-11-20T09:48:18.654Z,14.19
2016-11-20T09:49:31.703Z,14.18
2016-11-20T09:50:45.277Z,14.04
2016-11-20T09:51:58.745Z,14.08
2016-11-20T09:53:11.760Z,14.16
2016-11-20T09:54:24.778Z,14.18
2016-11-20T09:55:38.376Z,14.27
2016-11-20T09:56:51.875Z,14.22
2016-11-20T09:58:05.428Z,14.13
2016-11-20T09:59:18.481Z,14.08
2016-11-20T10:00:31.483Z,14.12
2016-11-20T10:01:44.516Z,14.13
2016-11-20T10:02:56.982Z,14.16
2016-11-20T10:04:10.582Z,14.26
2016-11-20T10:05:24.158Z,14.26
2016-11-20T10:06:37.677Z,14.3
2016-11-20T10:07:51.235Z,14.26
2016-11-20T10:09:04.879Z,14.33
2016-11-20T10:10:18.478Z,14.34
2016-11-20T10:11:32.027Z,14.3
2016-11-20T10:12:45.071Z,14.37
2016-11-20T10:13:58.596Z,14.52
2016-11-20T10:15:43.294Z,14.67
2016-11-20T10:16:55.920Z,14.92
2016-11-20T10:18:08.357Z,14.97
2016-11-20T10:19:21.358Z,14.99
2016-11-20T10:20:34.427Z,15.01
2016-11-20T10:21:47.926Z,15.1
2016-11-20T10:23:00.968Z,15.01
2016-11-20T10:24:14.507Z,14.97
2016-11-20T10:25:28.068Z,15.07
2016-11-20T10:26:41.690Z,15.04
2016-11-20T10:27:54.774Z,15.08
2016-11-20T10:29:07.846Z,15.11
2016-11-20T10:30:20.890Z,15.22
2016-11-20T10:31:33.346Z,15.3
2016-11-20T10:32:46.963Z,15.48
2016-11-20T10:34:00.592Z,15.59
2016-11-20T10:35:12.563Z,15.6
2016-11-20T10:36:26.194Z,15.69
2016-11-20T10:37:39.764Z,15.83
2016-11-20T10:38:52.807Z,15.83
2016-11-20T10:40:06.387Z,15.96
2016-11-20T10:41:19.452Z,16.14
2016-11-20T10:42:33.092Z,16.29
2016-11-20T10:43:46.670Z,16.58
2016-11-20T10:44:59.680Z,16.55
2016-11-20T10:46:12.120Z,16.83
2016-11-20T10:47:25.132Z,16.87
2016-11-20T10:48:38.735Z,17.09
2016-11-20T10:49:51.743Z,16.94
2016-11-20T10:51:04.769Z,16.99
2016-11-20T10:52:18.347Z,17.07
2016-11-20T10:53:31.893Z,17.19
2016-11-20T10:54:45.014Z,17.13
2016-11-20T10:55:58.608Z,17.28
2016-11-20T10:57:12.258Z,17.38
2016-11-20T10:58:25.313Z,17.54
2016-11-20T10:59:38.388Z,17.54
2016-11-20T11:00:51.454Z,17.35
2016-11-20T11:02:04.556Z,17.43
2016-11-20T11:03:17.538Z,17.43
2016-11-20T11:04:31.069Z,17.32
2016-11-20T11:05:44.141Z,17.19
2016-11-20T11:06:57.714Z,17.41
2016-11-20T11:08:10.912Z,17.49
2016-11-20T11:09:24.820Z,17.69
2016-11-20T11:10:38.419Z,17.9
2016-11-20T11:11:50.940Z,17.93
2016-11-20T11:13:03.971Z,18.03
2016-11-20T11:14:17.014Z,18.18
2016-11-20T11:15:30.505Z,18.26
2016-11-20T11:16:43.032Z,18.13
2016-11-20T11:17:56.664Z,18.06
2016-11-20T11:19:10.261Z,18.03
2016-11-20T11:20:23.281Z,18.13
2016-11-20T11:21:36.367Z,18.56
2016-11-20T11:22:49.907Z,18.76
2016-11-20T11:24:03.513Z,18.88
2016-11-20T11:25:16.600Z,18.61
2016-11-20T11:26:30.129Z,18.31
2016-11-20T11:27:43.105Z,18.02
2016-11-20T11:28:56.124Z,17.96
2016-11-20T11:30:40.840Z,18.12
2016-11-20T11:31:54.359Z,18.41
2016-11-20T11:33:06.895Z,18.43
2016-11-20T11:34:20.446Z,18.52
2016-11-20T11:35:34.047Z,18.51
2016-11-20T11:36:47.638Z,18.68
2016-11-20T11:38:01.209Z,18.63
2016-11-20T11:39:14.802Z,18.51
2016-11-20T11:40:27.842Z,18.12
2016-11-20T11:41:41.353Z,18.28
2016-11-20T11:42:53.861Z,18.6
2016-11-20T11:44:06.312Z,18.91
2016-11-20T11:45:19.361Z,19.19
2016-11-20T11:46:31.895Z,19.49
2016-11-20T11:47:45.481Z,19.59
2016-11-20T11:48:58.555Z,19.72
2016-11-20T11:50:12.133Z,19.6
2016-11-20T11:51:24.714Z,19.37
2016-11-20T11:52:37.734Z,19.49
2016-11-20T11:53:50.774Z,19.72
2016-11-20T11:55:03.267Z,19.68
2016-11-20T11:56:16.846Z,19.71
2016-11-20T11:57:29.933Z,19.64
2016-11-20T11:58:42.536Z,19.56
2016-11-20T11:59:55.039Z,19.59
2016-11-20T12:01:08.604Z,19.75
2016-11-20T12:02:22.221Z,19.7
2016-11-20T12:03:35.289Z,19.42
2016-11-20T12:04:48.308Z,19.41
2016-11-20T12:06:01.869Z,19.53
2016-11-20T12:07:14.916Z,19.77
2016-11-20T12:08:28.035Z,19.96
2016-11-20T12:09:41.658Z,19.74
2016-11-20T12:10:55.167Z,19.49
2016-11-20T12:12:08.773Z,19.52
2016-11-20T12:13:21.782Z,19.5
2016-11-20T12:14:34.824Z,19.6
2016-11-20T12:15:48.411Z,19.78
2016-11-20T12:17:02.017Z,19.94
2016-11-20T12:18:14.564Z,19.97
2016-11-20T12:19:27.118Z,20
2016-11-20T12:20:40.161Z,19.89
2016-11-20T12:21:53.208Z,19.75
2016-11-20T12:23:06.222Z,19.79
2016-11-20T12:24:19.865Z,19.64
2016-11-20T12:25:32.329Z,19.74
2016-11-20T12:26:45.373Z,19.87
2016-11-20T12:27:58.331Z,20.18
2016-11-20T12:29:11.326Z,20.63
2016-11-20T12:30:24.842Z,20.85
2016-11-20T12:31:37.322Z,21.16
2016-11-20T12:32:49.286Z,21.19
2016-11-20T12:34:02.576Z,21.08
2016-11-20T12:35:15.580Z,20.86
2016-11-20T12:36:28.589Z,20.77
2016-11-20T12:37:40.606Z,20.95
2016-11-20T12:38:53.682Z,21.16
2016-11-20T12:40:06.122Z,21.37
2016-11-20T12:41:19.099Z,21.51
2016-11-20T12:42:32.139Z,21.43
2016-11-20T12:43:45.204Z,21.35
2016-11-20T12:44:58.251Z,21.59
2016-11-20T12:46:11.248Z,21.75
2016-11-20T12:47:24.370Z,21.97
2016-11-20T12:48:37.429Z,22.09
2016-11-20T12:49:49.914Z,21.58
2016-11-20T12:51:03.531Z,21.34
2016-11-20T12:52:16.578Z,21.16
2016-11-20T12:53:29.607Z,21.16
2016-11-20T12:55:13.815Z,20.9
2016-11-20T12:56:26.295Z,20.98
2016-11-20T12:57:39.332Z,20.9
2016-11-20T12:58:51.861Z,20.86
2016-11-20T13:00:04.876Z,20.98
2016-11-20T13:01:18.466Z,21.08
2016-11-20T13:02:31.525Z,21.14
2016-11-20T13:03:45.102Z,21.51
2016-11-20T13:04:58.140Z,21.74
2016-11-20T13:06:11.679Z,21.96
2016-11-20T13:07:25.260Z,21.66
2016-11-20T13:08:38.834Z,21.53
2016-11-20T13:09:51.900Z,21.71
2016-11-20T13:11:04.968Z,22.11
2016-11-20T13:12:18.556Z,22.4
2016-11-20T13:13:32.095Z,22.49
2016-11-20T13:14:44.615Z,22.59
2016-11-20T13:15:58.165Z,22.68
2016-11-20T13:17:11.716Z,22.62
2016-11-20T13:18:25.301Z,22.64
2016-11-20T13:19:37.238Z,22.78
2016-11-20T13:20:50.796Z,22.98
2016-11-20T13:22:03.333Z,22.98
2016-11-20T13:23:16.955Z,22.61
2016-11-20T13:24:30.052Z,22.33
2016-11-20T13:25:43.634Z,22.46
2016-11-20T13:26:56.586Z,22.38
2016-11-20T13:28:09.033Z,22.33
2016-11-20T13:29:21.505Z,22.64
2016-11-20T13:30:34.524Z,22.8
2016-11-20T13:31:48.059Z,23.04
2016-11-20T13:33:01.106Z,23.01
2016-11-20T13:34:14.668Z,22.61
2016-11-20T13:35:27.121Z,22.21
2016-11-20T13:36:40.700Z,22.11
2016-11-20T13:37:53.713Z,22.13
2016-11-20T13:39:07.268Z,22.21
2016-11-20T13:40:20.840Z,22.33
2016-11-20T13:41:33.897Z,22.36
2016-11-20T13:42:47.498Z,22.36
2016-11-20T13:44:01.029Z,22.34
2016-11-20T13:45:14.139Z,22.59
2016-11-20T13:46:27.217Z,22.67
2016-11-20T13:47:40.310Z,22.78
2016-11-20T13:48:53.938Z,23.13
2016-11-20T13:50:07.005Z,23.45
2016-11-20T13:51:20.583Z,23.7
2016-11-20T13:52:33.600Z,23.63
2016-11-20T13:53:47.122Z,23.17
2016-11-20T13:54:59.618Z,22.93
2016-11-20T13:56:12.668Z,23.06
2016-11-20T13:57:26.203Z,22.77
2016-11-20T13:58:39.764Z,22.68
2016-11-20T13:59:53.369Z,22.71
2016-11-20T14:01:06.965Z,22.8
2016-11-20T14:02:20.523Z,22.76
2016-11-20T14:03:33.058Z,22.51
2016-11-20T14:04:46.050Z,22.51
2016-11-20T14:05:59.124Z,22.53
2016-11-20T14:07:11.674Z,22.59
2016-11-20T14:08:24.652Z,22.91
2016-11-20T14:09:38.166Z,22.68
2016-11-20T14:10:51.306Z,22.68
2016-11-20T14:12:04.348Z,22.71
2016-11-20T14:13:16.291Z,23.04
2016-11-20T14:14:29.786Z,23.36
2016-11-20T14:15:43.305Z,23.31
2016-11-20T14:16:56.892Z,23.11
2016-11-20T14:18:09.915Z,23.25
2016-11-20T14:19:22.365Z,23.39
2016-11-20T14:20:35.977Z,23.36
2016-11-20T14:21:49.079Z,23.25
2016-11-20T14:23:02.070Z,23.07
2016-11-20T14:24:15.681Z,22.86
2016-11-20T14:25:28.218Z,22.8
2016-11-20T14:26:41.256Z,22.71
2016-11-20T14:27:54.319Z,22.7
2016-11-20T14:29:07.855Z,22.52
2016-11-20T14:30:21.456Z,22.55
2016-11-20T14:31:34.528Z,22.48
2016-11-20T14:32:48.049Z,22.37
2016-11-20T14:34:01.037Z,22.27
2016-11-20T14:35:14.604Z,22.11
2016-11-20T14:36:28.176Z,21.9
2016-11-20T14:37:40.673Z,21.9
2016-11-20T14:38:54.231Z,21.9
2016-11-20T14:40:07.259Z,22.01
2016-11-20T14:41:19.750Z,22.13
2016-11-20T14:42:33.370Z,22.21
2016-11-20T14:43:46.913Z,22.36
2016-11-20T14:45:00.523Z,22.44
2016-11-20T14:46:14.086Z,22.41
2016-11-20T14:47:26.625Z,22.49
2016-11-20T14:48:39.602Z,22.49
2016-11-20T14:49:51.567Z,22.58
2016-11-20T14:51:04.610Z,22.64
2016-11-20T14:52:16.671Z,22.46
2016-11-20T14:53:29.207Z,22.13
2016-11-20T14:54:42.229Z,21.94
2016-11-20T14:55:55.777Z,22
2016-11-20T14:57:09.324Z,21.97
2016-11-20T14:58:22.345Z,22.07
2016-11-20T14:59:35.345Z,22.16
2016-11-20T15:00:48.432Z,22.31
2016-11-20T15:02:01.506Z,22.41
2016-11-20T15:03:14.541Z,22.48
2016-11-20T15:04:27.021Z,22.49
2016-11-20T15:05:40.089Z,22.31
2016-11-20T15:06:53.128Z,22.23
2016-11-20T15:08:06.161Z,22.33
2016-11-20T15:09:19.678Z,22.25
2016-11-20T15:10:32.697Z,22.31
2016-11-20T15:11:46.254Z,22.33
2016-11-20T15:12:59.361Z,22.46
2016-11-20T15:14:12.384Z,22.43
2016-11-20T15:15:25.369Z,22.43
2016-11-20T15:16:38.925Z,22.51
2016-11-20T15:18:23.560Z,22.53
2016-11-20T15:19:35.601Z,22.71
2016-11-20T15:20:48.640Z,22.73
2016-11-20T15:22:00.651Z,22.68
2016-11-20T15:23:14.221Z,22.62
2016-11-20T15:24:26.723Z,22.71
2016-11-20T15:25:40.337Z,22.66
2016-11-20T15:26:51.866Z,22.53
2016-11-20T15:28:04.866Z,22.33
2016-11-20T15:29:17.362Z,22.3
2016-11-20T15:30:30.370Z,22.31
2016-11-20T15:31:43.481Z,22.34
2016-11-20T15:32:56.618Z,22.52
2016-11-20T15:34:08.571Z,22.7
2016-11-20T15:35:21.541Z,22.67
2016-11-20T15:36:35.091Z,22.49
2016-11-20T15:37:48.148Z,22.58
2016-11-20T15:39:00.699Z,22.71
2016-11-20T15:40:13.704Z,22.78
2016-11-20T15:41:26.199Z,22.81
2016-11-20T15:42:39.243Z,23.03
2016-11-20T15:43:52.863Z,23.11
2016-11-20T15:45:06.405Z,23.03
2016-11-20T15:46:50.551Z,22.66
2016-11-20T15:48:35.232Z,22.58
2016-11-20T15:49:48.340Z,22.7
2016-11-20T15:51:01.864Z,22.58
2016-11-20T15:52:45.482Z,22.59
2016-11-20T15:53:59.113Z,22.59
2016-11-20T15:55:12.659Z,22.67
2016-11-20T15:56:25.705Z,22.68
2016-11-20T15:57:38.712Z,22.7
2016-11-20T15:58:51.187Z,22.66
2016-11-20T16:00:04.675Z,22.71
2016-11-20T16:01:17.707Z,22.86